Time;durP1;ratioP1;P1;durP2;ratioP2;P2;SDS_P1;SDS_P2;PMS_P1;PMS_P2;Temp;Humidity;BMP_temperature;BMP_pressure;BME280_temperature;BME280_humidity;BME280_pressure;Samples;Min_cycle;Max_cycle;Signal;HPM_P1;HPM_P2
2022/11/10 00:00:54;;;;;;;0.73;0.73;;;;;;;11.06;73.57;101224.53;5160047;28;20034;-81
2022/11/10 00:03:27;;;;;;;0.40;0.40;;;;;;;11.04;73.88;101227.19;5141288;28;20489;-81
2022/11/10 00:06:00;;;;;;;0.45;0.45;;;;;;;10.95;74.08;101225.59;5127948;28;20035;-81
2022/11/10 00:08:31;;;;;;;0.40;0.35;;;;;;;10.96;74.37;101227.34;5114477;28;20034;-81
2022/11/10 00:11:05;;;;;;;0.52;0.52;;;;;;;11.01;73.73;101236.00;5143729;28;20034;-81
2022/11/10 00:16:59;;;;;;;0.40;0.40;;;;;;;11.04;74.00;101242.94;5131212;28;20053;-81
2022/11/10 00:19:19;;;;;;;0.47;0.47;;;;;;;10.96;74.46;101239.59;5154463;28;20097;-81
2022/11/10 00:21:53;;;;;;;0.82;0.50;;;;;;;10.90;74.65;101240.59;5159370;28;20061;-81
2022/11/10 00:24:25;;;;;;;0.50;0.50;;;;;;;10.89;74.70;101244.09;5158788;28;21360;-82
2022/11/10 00:26:55;;;;;;;0.20;0.20;;;;;;;10.98;74.23;101237.81;5155727;28;20054;-79
2022/11/10 00:29:28;;;;;;;0.57;0.57;;;;;;;10.96;74.19;101239.59;5140401;28;20093;-80
2022/11/10 00:31:59;;;;;;;0.22;0.22;;;;;;;10.88;74.32;101238.91;5172680;28;20031;-81
2022/11/10 00:34:29;;;;;;;0.95;0.95;;;;;;;10.91;74.23;101234.44;5142630;28;20038;-80
2022/11/10 00:37:00;;;;;;;0.70;0.70;;;;;;;10.91;74.11;101241.47;5142736;28;20034;-81
2022/11/10 00:39:35;;;;;;;0.43;0.43;;;;;;;10.96;73.98;101250.13;5132739;28;20042;-81
2022/11/10 00:42:09;;;;;;;0.40;0.40;;;;;;;10.93;74.10;101252.78;5158589;28;20046;-82
2022/11/10 00:44:40;;;;;;;1.85;0.88;;;;;;;10.82;74.32;101261.75;5141660;28;20429;-81
2022/11/10 00:47:10;;;;;;;2.40;1.27;;;;;;;10.88;74.47;101263.38;5160007;28;20038;-81
2022/11/10 00:49:41;;;;;;;0.93;0.93;;;;;;;10.94;73.92;101263.28;5144330;28;20042;-81
2022/11/10 00:52:11;;;;;;;1.95;1.05;;;;;;;10.81;74.17;101262.66;5165463;28;20038;-82
2022/11/10 00:54:42;;;;;;;0.40;0.40;;;;;;;10.87;73.97;101266.91;5162910;28;20047;-80
2022/11/10 00:57:13;;;;;;;11.27;1.75;;;;;;;10.92;73.96;101269.44;5142096;28;20047;-81
2022/11/10 00:59:44;;;;;;;1.45;1.45;;;;;;;10.85;74.66;101273.97;5155947;28;20030;-80
2022/11/10 01:02:14;;;;;;;0.77;0.77;;;;;;;10.88;74.05;101268.63;5175394;28;20034;-81
2022/11/10 01:04:45;;;;;;;0.40;0.40;;;;;;;10.83;74.35;101271.34;5131728;28;20034;-81
2022/11/10 01:07:16;;;;;;;0.52;0.52;;;;;;;10.76;74.92;101277.59;5126314;28;20041;-80
2022/11/10 01:09:47;;;;;;;2.65;1.85;;;;;;;10.99;73.56;101266.66;5140624;28;20073;-81
2022/11/10 01:12:18;;;;;;;0.30;0.30;;;;;;;10.93;73.53;101269.44;5140900;28;20106;-82
2022/11/10 01:14:48;;;;;;;0.60;0.60;;;;;;;10.84;74.42;101269.59;5153954;28;20034;-81
2022/11/10 01:17:19;;;;;;;0.30;0.30;;;;;;;10.79;74.96;101285.44;5137287;28;20085;-81
2022/11/10 01:19:49;;;;;;;0.30;0.30;;;;;;;10.85;74.52;101284.47;5162805;28;20061;-81
2022/11/10 01:22:20;;;;;;;0.60;0.60;;;;;;;10.82;74.61;101284.50;5130527;28;20105;-81
2022/11/10 01:24:51;;;;;;;0.30;0.30;;;;;;;10.75;75.09;101289.00;5129026;28;20057;-80
2022/11/10 01:27:21;;;;;;;0.60;0.60;;;;;;;10.77;74.70;101292.47;5160890;28;20134;-81
2022/11/10 01:29:52;;;;;;;0.20;0.20;;;;;;;10.73;75.48;101300.41;5132439;28;20042;-79
2022/11/10 01:32:23;;;;;;;2.38;0.95;;;;;;;10.70;75.26;101302.19;5181204;28;20053;-82
2022/11/10 01:34:53;;;;;;;0.50;0.50;;;;;;;10.81;74.65;101298.53;5134368;28;20073;-78
2022/11/10 01:37:24;;;;;;;0.73;0.43;;;;;;;10.78;74.97;101306.47;5150714;28;20030;-78
2022/11/10 01:39:54;;;;;;;0.35;0.35;;;;;;;10.75;74.87;101303.91;5168942;28;20042;-81
2022/11/10 01:42:36;;;;;;;0.20;0.20;;;;;;;10.69;75.36;101300.50;5157324;28;20026;-83
2022/11/10 01:45:40;;;;;;;1.05;0.70;;;;;;;10.64;75.48;101301.47;5166632;28;20023;-81
2022/11/10 01:48:18;;;;;;;0.55;0.55;;;;;;;10.63;75.78;101315.47;5177998;28;20035;-80
2022/11/10 01:50:49;;;;;;;1.27;1.17;;;;;;;10.57;76.16;101311.19;5164340;28;20133;-80
2022/11/10 01:53:23;;;;;;;0.30;0.30;;;;;;;10.66;75.59;101308.41;5166061;28;20069;-79
2022/11/10 01:55:55;;;;;;;0.30;0.30;;;;;;;10.62;75.28;101298.84;5179321;28;20030;-82
2022/11/10 01:58:31;;;;;;;0.20;0.20;;;;;;;10.62;75.21;101325.09;5163755;28;20065;-80
2022/11/10 02:01:02;;;;;;;0.50;0.50;;;;;;;10.50;76.18;101318.31;5155464;28;20034;-83
2022/11/10 02:03:50;;;;;;;3.67;1.33;;;;;;;10.65;75.32;101324.19;5158992;28;20549;-80
2022/11/10 02:06:24;;;;;;;1.08;1.02;;;;;;;10.60;75.80;101329.53;5151404;28;20030;-81
2022/11/10 02:08:56;;;;;;;0.65;0.38;;;;;;;10.72;74.88;101331.06;5159188;28;20042;-82
2022/11/10 02:11:28;;;;;;;0.82;0.82;;;;;;;10.64;75.47;101340.84;5174852;28;20067;-80
2022/11/10 02:13:59;;;;;;;0.85;0.73;;;;;;;10.60;75.62;101342.66;5166215;28;20043;-79
2022/11/10 02:16:31;;;;;;;0.20;0.20;;;;;;;10.63;75.46;101342.56;5140941;28;20030;-83
2022/11/10 02:19:21;;;;;;;1.33;1.20;;;;;;;10.57;76.03;101347.94;5146683;28;20034;-81
2022/11/10 02:21:51;;;;;;;1.73;1.63;;;;;;;10.60;75.78;101344.38;5165004;28;20401;-82
2022/11/10 02:24:22;;;;;;;0.30;0.30;;;;;;;10.49;76.47;101341.97;5178757;28;20053;-81
2022/11/10 02:26:54;;;;;;;0.82;0.82;;;;;;;10.53;75.95;101344.50;5147673;28;20065;-81
2022/11/10 02:29:25;;;;;;;0.47;0.47;;;;;;;10.64;75.26;101343.47;5145022;28;20050;-82
2022/11/10 02:31:56;;;;;;;0.35;0.35;;;;;;;10.55;76.23;101354.97;5176409;28;20071;-80
2022/11/10 02:34:26;;;;;;;0.90;0.90;;;;;;;10.55;75.95;101354.97;5134782;28;20043;-78
2022/11/10 02:36:57;;;;;;;0.20;0.20;;;;;;;10.53;75.97;101348.91;5165176;28;20069;-82
2022/11/10 02:39:27;;;;;;;0.65;0.65;;;;;;;10.48;76.47;101348.97;5132856;28;20070;-83
2022/11/10 02:42:01;;;;;;;0.70;0.70;;;;;;;10.42;76.70;101345.56;5157342;28;20647;-81
2022/11/10 02:44:35;;;;;;;0.30;0.30;;;;;;;10.42;76.77;101345.56;5145563;28;20042;-78
2022/11/10 02:47:06;;;;;;;0.73;0.68;;;;;;;10.55;75.66;101349.72;5147951;28;20031;-80
2022/11/10 02:49:37;;;;;;;1.98;1.73;;;;;;;10.43;76.71;101347.31;5140851;28;20400;-81
2022/11/10 02:52:07;;;;;;;0.43;0.43;;;;;;;10.46;76.26;101350.75;5149515;28;20053;-80
2022/11/10 02:54:38;;;;;;;0.60;0.60;;;;;;;10.47;76.63;101356.84;5130514;28;20061;-84
2022/11/10 02:57:08;;;;;;;1.27;1.17;;;;;;;10.44;76.54;101364.78;5133353;28;20027;-81
2022/11/10 02:59:39;;;;;;;0.30;0.30;;;;;;;10.45;76.81;101369.16;5142996;28;20054;-81
2022/11/10 03:02:12;;;;;;;0.30;0.30;;;;;;;10.37;77.08;101367.50;5161546;28;20039;-81
2022/11/10 03:04:43;;;;;;;0.68;0.68;;;;;;;10.33;77.23;101375.44;5158709;28;20031;-81
2022/11/10 03:07:13;;;;;;;0.50;0.50;;;;;;;10.42;76.54;101379.69;5146506;28;20049;-82
2022/11/10 03:09:44;;;;;;;3.70;1.60;;;;;;;10.27;77.21;101389.50;5161017;28;20042;-78
2022/11/10 03:12:15;;;;;;;0.55;0.55;;;;;;;10.25;77.57;101396.50;5159366;28;20043;-82
2022/11/10 03:14:45;;;;;;;10.05;1.00;;;;;;;10.31;77.04;101396.41;5133298;28;20022;-81
2022/11/10 03:17:16;;;;;;;0.45;0.45;;;;;;;10.35;77.07;101394.59;5161369;28;20499;-82
2022/11/10 03:19:48;;;;;;;0.40;0.40;;;;;;;10.26;77.41;101400.88;5131929;28;20038;-79
2022/11/10 03:22:18;;;;;;;0.77;0.77;;;;;;;10.26;77.18;101393.00;5164642;28;20031;-81
2022/11/10 03:24:49;;;;;;;4.22;0.85;;;;;;;10.35;77.36;101387.63;5160695;28;20065;-80
2022/11/10 03:27:21;;;;;;;0.30;0.30;;;;;;;10.32;77.18;101379.78;5146361;28;20778;-79
2022/11/10 03:29:52;;;;;;;0.73;0.40;;;;;;;10.33;77.05;101386.78;5162126;28;20039;-79
2022/11/10 03:32:23;;;;;;;0.30;0.30;;;;;;;10.26;77.27;101386.88;5129196;28;20038;-80
2022/11/10 03:34:53;;;;;;;0.47;0.47;;;;;;;10.32;76.98;101390.28;5143601;28;20077;-81
2022/11/10 03:37:23;;;;;;;0.30;0.30;;;;;;;10.24;77.51;101394.78;5140617;28;20030;-80
2022/11/10 03:39:54;;;;;;;0.25;0.25;;;;;;;10.21;77.70;101408.81;5155791;28;20552;-80
2022/11/10 03:42:25;;;;;;;0.20;0.20;;;;;;;10.17;78.16;101416.72;5131929;28;20090;-81
2022/11/10 03:44:55;;;;;;;1.13;1.00;;;;;;;10.16;77.90;101420.25;5143276;28;20061;-81
2022/11/10 03:47:26;;;;;;;0.30;0.30;;;;;;;10.15;78.33;101416.78;5141621;28;20041;-82
2022/11/10 03:49:56;;;;;;;0.30;0.30;;;;;;;10.14;78.20;101419.38;5143221;28;20041;-81
2022/11/10 03:52:27;;;;;;;0.30;0.30;;;;;;;10.19;77.76;101425.47;5159144;28;20026;-83
2022/11/10 03:54:57;;;;;;;0.75;0.75;;;;;;;10.06;78.78;101430.84;5158731;28;20034;-81
2022/11/10 03:57:28;;;;;;;10.50;1.98;;;;;;;10.08;78.43;101423.84;5143720;28;20041;-81
2022/11/10 03:59:59;;;;;;;0.30;0.30;;;;;;;10.12;78.19;101429.91;5160347;28;20053;-81
2022/11/10 04:02:33;;;;;;;1.45;1.35;;;;;;;10.08;78.50;101438.72;5132088;28;20488;-80
2022/11/10 04:11:11;;;;;;;1.00;0.65;;;;;;;10.07;78.43;101450.94;5154991;28;20077;-80
2022/11/10 04:16:51;;;;;;;0.63;0.63;;;;;;;10.00;78.40;101462.41;5145329;28;20180;-80
2022/11/10 04:19:22;;;;;;;0.50;0.50;;;;;;;9.99;78.71;101468.53;5163340;28;20058;-81
2022/11/10 04:21:53;;;;;;;0.57;0.57;;;;;;;9.98;78.87;101464.16;5151513;28;20051;-81
2022/11/10 04:24:24;;;;;;;0.40;0.40;;;;;;;10.04;78.63;101474.56;5134036;28;20117;-80
2022/11/10 04:26:54;;;;;;;0.50;0.50;;;;;;;9.96;79.32;101471.19;5123778;28;20031;-80
2022/11/10 04:29:25;;;;;;;0.35;0.35;;;;;;;10.08;78.41;101483.28;5136452;28;20061;-81
2022/11/10 04:31:55;;;;;;;1.50;1.40;;;;;;;10.09;78.40;101482.38;5108471;28;20039;-81
2022/11/10 04:34:26;;;;;;;0.30;0.30;;;;;;;10.01;79.04;101485.13;5123151;28;20121;-80
2022/11/10 04:36:56;;;;;;;1.17;0.90;;;;;;;10.11;78.20;101479.75;5105176;28;20042;-82
2022/11/10 04:39:27;;;;;;;6.13;0.98;;;;;;;10.06;78.58;101483.28;5136877;28;20038;-81
2022/11/10 04:41:57;;;;;;;4.50;2.20;;;;;;;9.98;78.93;101487.75;5116349;28;20062;-81
2022/11/10 04:44:28;;;;;;;0.55;0.55;;;;;;;9.93;79.13;101492.22;5123723;28;20146;-80
2022/11/10 04:46:58;;;;;;;0.65;0.65;;;;;;;9.98;78.72;101494.78;5149767;28;20031;-81
2022/11/10 04:49:29;;;;;;;1.20;1.10;;;;;;;10.02;79.34;101499.97;5115773;28;20050;-81
2022/11/10 04:52:00;;;;;;;0.20;0.20;;;;;;;9.99;79.10;101492.13;5139702;28;20533;-81
2022/11/10 04:54:30;;;;;;;5.88;3.58;;;;;;;10.00;79.17;101506.97;5135713;28;20402;-81
2022/11/10 04:57:01;;;;;;;4.72;1.42;;;;;;;9.93;78.69;101513.19;5105033;28;20042;-80
2022/11/10 04:59:32;;;;;;;0.82;0.82;;;;;;;9.85;79.99;101515.03;5123753;28;20176;-81
2022/11/10 05:02:06;;;;;;;0.30;0.30;;;;;;;9.86;79.43;101507.13;5163067;28;20026;-81
2022/11/10 05:04:36;;;;;;;1.08;0.88;;;;;;;10.04;78.37;101518.28;5162994;28;20050;-81
2022/11/10 05:07:08;;;;;;;0.32;0.32;;;;;;;10.02;78.51;101523.56;5129216;28;20034;-80
2022/11/10 05:09:38;;;;;;;0.20;0.20;;;;;;;9.88;79.26;101530.69;5129145;28;20038;-81
2022/11/10 05:12:09;;;;;;;0.40;0.40;;;;;;;9.90;79.61;101534.19;5127448;28;20034;-81
2022/11/10 05:14:40;;;;;;;0.63;0.63;;;;;;;9.84;79.65;101549.97;5131978;28;20027;-81
2022/11/10 05:17:11;;;;;;;4.07;1.75;;;;;;;10.01;78.84;101548.03;5115458;28;20031;-81
2022/11/10 05:19:41;;;;;;;1.92;1.65;;;;;;;9.96;78.98;101549.81;5117968;28;20113;-82
2022/11/10 05:22:15;;;;;;;0.65;0.65;;;;;;;9.92;78.67;101551.63;5137491;28;20042;-82
2022/11/10 05:24:45;;;;;;;1.92;1.23;;;;;;;9.88;79.33;101559.53;5136719;28;20057;-83
2022/11/10 05:27:16;;;;;;;0.43;0.43;;;;;;;9.88;79.31;101562.16;5135330;28;20277;-81
2022/11/10 05:29:47;;;;;;;6.03;1.17;;;;;;;9.87;79.37;101565.69;5145002;28;20034;-82
2022/11/10 05:32:17;;;;;;;0.40;0.40;;;;;;;10.00;78.98;101562.03;5134279;28;20168;-83
2022/11/10 05:34:48;;;;;;;0.20;0.20;;;;;;;9.91;78.77;101570.88;5124665;28;20058;-84
2022/11/10 05:37:21;;;;;;;0.30;0.30;;;;;;;9.90;79.34;101576.13;5116907;28;20114;-82
2022/11/10 05:39:54;;;;;;;3.67;1.60;;;;;;;9.85;79.45;101577.94;5128582;28;20055;-83
2022/11/10 05:42:26;;;;;;;0.40;0.40;;;;;;;9.95;78.53;101578.69;5159160;28;20113;-82
2022/11/10 05:44:57;;;;;;;6.03;1.50;;;;;;;10.04;78.40;101578.59;5110686;28;20132;-82
2022/11/10 05:47:28;;;;;;;0.30;0.30;;;;;;;9.84;79.26;101590.16;5111373;28;20026;-82
2022/11/10 05:49:58;;;;;;;0.30;0.30;;;;;;;9.97;78.52;101583.03;5111004;28;20854;-82
2022/11/10 05:52:29;;;;;;;0.63;0.57;;;;;;;9.99;78.63;101591.75;5138145;28;20469;-83
2022/11/10 05:55:00;;;;;;;0.57;0.52;;;;;;;9.88;78.50;101580.50;5162512;28;20057;-81
2022/11/10 05:57:36;;;;;;;2.00;1.83;;;;;;;9.76;80.09;101587.63;5130255;28;20041;-80
2022/11/10 06:00:08;;;;;;;0.30;0.30;;;;;;;9.84;79.02;101591.91;5115606;28;20043;-82
2022/11/10 06:02:44;;;;;;;0.40;0.40;;;;;;;9.79;79.24;101596.34;5133191;28;20042;-80
2022/11/10 06:05:15;;;;;;;1.08;0.95;;;;;;;9.80;79.48;101596.31;5152595;28;20027;-81
2022/11/10 06:07:45;;;;;;;1.30;1.05;;;;;;;9.80;79.78;101600.69;5105058;28;20082;-80
2022/11/10 06:10:16;;;;;;;0.40;0.40;;;;;;;9.79;79.60;101604.22;5109854;28;20038;-80
2022/11/10 06:12:49;;;;;;;0.68;0.68;;;;;;;9.84;79.02;101605.03;5154489;28;20107;-82
2022/11/10 06:15:20;;;;;;;0.30;0.30;;;;;;;9.83;79.72;101608.53;5128916;28;20065;-81
2022/11/10 06:17:51;;;;;;;0.20;0.20;;;;;;;9.88;79.26;101610.22;5126063;28;20035;-81
2022/11/10 06:20:22;;;;;;;4.03;1.80;;;;;;;9.75;79.89;101619.09;5123510;28;20051;-82
2022/11/10 06:23:19;;;;;;;0.75;0.75;;;;;;;9.76;79.44;101626.94;5109453;28;20055;-81
2022/11/10 06:25:50;;;;;;;1.35;0.80;;;;;;;9.73;80.19;101623.47;5098570;28;20062;-82
2022/11/10 06:28:21;;;;;;;11.98;1.25;;;;;;;9.78;79.35;101624.28;5121055;28;20047;-82
2022/11/10 06:30:51;;;;;;;2.20;1.27;;;;;;;9.83;78.96;101619.00;5114037;28;20563;-81
2022/11/10 06:33:22;;;;;;;1.25;1.15;;;;;;;9.76;79.47;101632.19;5122059;28;20047;-82
2022/11/10 06:35:52;;;;;;;1.15;0.57;;;;;;;9.72;79.45;101627.84;5109882;28;20038;-81
2022/11/10 06:38:23;;;;;;;0.63;0.63;;;;;;;9.69;80.04;101620.00;5135662;28;20038;-82
2022/11/10 06:40:53;;;;;;;0.43;0.43;;;;;;;9.77;79.31;101631.31;5124659;28;20081;-80
2022/11/10 06:43:27;;;;;;;0.60;0.60;;;;;;;9.82;79.14;101639.13;5136447;28;20039;-81
2022/11/10 06:45:57;;;;;;;;;;;;;;;9.72;79.94;101651.41;5121100;28;20039;-82
2022/11/10 06:48:28;;;;;;;0.30;0.30;;;;;;;9.69;79.69;101646.22;5105126;28;20332;-81
2022/11/10 06:51:04;;;;;;;13.55;1.95;;;;;;;9.84;79.32;101649.59;5124531;28;20039;-80
2022/11/10 06:53:34;;;;;;;2.30;0.88;;;;;;;9.76;79.42;101652.25;5124965;28;20553;-81
2022/11/10 06:56:05;;;;;;;0.60;0.60;;;;;;;9.86;78.66;101663.56;5122501;28;20107;-81
2022/11/10 06:58:36;;;;;;;0.75;0.75;;;;;;;9.77;79.16;101665.38;5119724;28;20054;-80
2022/11/10 07:01:06;;;;;;;1.45;1.38;;;;;;;9.87;78.67;101666.16;5124360;28;20078;-81
2022/11/10 07:03:38;;;;;;;0.30;0.30;;;;;;;9.90;78.27;101670.50;5121731;28;20046;-80
2022/11/10 07:06:10;;;;;;;0.30;0.30;;;;;;;9.95;77.82;101673.06;5123548;28;20038;-80
2022/11/10 07:08:41;;;;;;;0.30;0.30;;;;;;;10.03;77.61;101693.13;5135096;28;20498;-80
2022/11/10 07:11:11;;;;;;;0.30;0.30;;;;;;;9.88;78.52;101693.22;5108010;28;20046;-80
2022/11/10 07:13:42;;;;;;;0.70;0.70;;;;;;;9.86;78.28;101700.25;5125894;28;20050;-80
2022/11/10 07:16:12;;;;;;;1.55;1.05;;;;;;;9.92;78.02;101711.53;5130976;28;20486;-80
2022/11/10 07:18:43;;;;;;;0.63;0.63;;;;;;;9.90;78.46;101707.19;5105175;28;20035;-80
2022/11/10 07:21:13;;;;;;;0.30;0.30;;;;;;;10.04;78.01;101715.78;5115162;28;20027;-80
2022/11/10 07:23:45;;;;;;;1.48;1.38;;;;;;;10.05;77.29;101717.53;5113281;28;20086;-81
2022/11/10 07:26:16;;;;;;;2.97;0.82;;;;;;;9.96;78.18;101727.25;5119730;28;20039;-80
2022/11/10 07:28:46;;;;;;;1.58;1.48;;;;;;;10.02;77.85;101732.44;5089689;29;20137;-80
2022/11/10 07:31:17;;;;;;;1.00;1.00;;;;;;;9.96;78.25;101735.97;5109123;29;20087;-80
2022/11/10 07:33:47;;;;;;;1.40;0.45;;;;;;;9.89;79.05;101736.91;5104455;28;20083;-80
2022/11/10 07:36:18;;;;;;;1.02;1.02;;;;;;;9.81;79.52;101739.59;5095455;28;20071;-81
2022/11/10 07:38:48;;;;;;;0.38;0.38;;;;;;;9.87;78.96;101743.94;5129690;28;20139;-80
2022/11/10 07:41:19;;;;;;;1.58;1.38;;;;;;;9.82;79.26;101736.09;5109392;28;20023;-81
2022/11/10 07:43:49;;;;;;;10.48;2.05;;;;;;;9.89;78.99;101744.78;5121014;28;20130;-80
2022/11/10 07:46:19;;;;;;;1.45;1.33;;;;;;;9.99;78.92;101751.69;5112889;28;20035;-80
2022/11/10 07:48:50;;;;;;;1.15;1.05;;;;;;;9.98;78.17;101749.94;5134477;28;20272;-80
2022/11/10 07:51:21;;;;;;;0.68;0.55;;;;;;;9.99;78.99;101749.06;5125175;28;20054;-80
2022/11/10 07:53:51;;;;;;;0.60;0.60;;;;;;;10.01;78.96;101763.03;5108488;28;20070;-80
2022/11/10 07:56:22;;;;;;;1.85;0.75;;;;;;;9.99;79.18;101764.78;5122262;28;20089;-81
2022/11/10 07:58:52;;;;;;;0.77;0.77;;;;;;;10.05;78.74;101767.34;5104059;28;20039;-80
2022/11/10 08:01:22;;;;;;;1.90;1.10;;;;;;;10.06;79.17;101771.72;5122225;28;20039;-80
2022/11/10 08:03:53;;;;;;;2.53;1.58;;;;;;;10.03;79.08;101779.63;5097092;29;20042;-81
2022/11/10 08:06:24;;;;;;;0.60;0.60;;;;;;;10.07;78.65;101788.34;5123663;28;20043;-80
2022/11/10 08:08:55;;;;;;;0.30;0.30;;;;;;;10.05;79.36;101790.97;5119302;28;20126;-80
2022/11/10 08:11:25;;;;;;;0.70;0.70;;;;;;;10.06;79.29;101786.59;5086005;29;20045;-80
2022/11/10 08:13:56;;;;;;;0.40;0.40;;;;;;;10.09;79.17;101791.81;5103466;29;20051;-80
2022/11/10 08:16:26;;;;;;;0.85;0.85;;;;;;;10.20;78.85;101794.38;5105879;29;20035;-80
2022/11/10 08:18:57;;;;;;;3.58;1.85;;;;;;;10.12;79.32;101798.81;5121375;28;20074;-80
2022/11/10 08:21:28;;;;;;;0.40;0.40;;;;;;;10.21;78.74;101798.69;5090351;28;20038;-81
2022/11/10 08:23:58;;;;;;;2.42;1.10;;;;;;;10.23;79.02;101805.69;5104462;29;20050;-80
2022/11/10 08:26:29;;;;;;;0.30;0.30;;;;;;;10.14;79.26;101805.78;5107388;29;20035;-81
2022/11/10 08:28:59;;;;;;;0.40;0.40;;;;;;;10.18;79.26;101817.09;5090848;28;20532;-82
2022/11/10 08:31:32;;;;;;;0.60;0.60;;;;;;;10.21;79.10;101815.31;5106222;28;20027;-81
2022/11/10 08:34:04;;;;;;;0.30;0.30;;;;;;;10.22;79.65;101814.44;5107388;28;20065;-82
2022/11/10 08:36:36;;;;;;;1.90;0.83;;;;;;;10.27;79.43;101822.28;5128815;28;20039;-81
2022/11/10 08:39:11;;;;;;;1.95;0.68;;;;;;;10.33;79.25;101821.38;5122777;28;21092;-81
2022/11/10 08:41:41;;;;;;;0.68;0.68;;;;;;;10.35;79.50;101825.72;5138734;28;20038;-82
2022/11/10 08:44:12;;;;;;;3.30;1.65;;;;;;;10.41;79.48;101824.81;5106272;29;20509;-82
2022/11/10 08:46:43;;;;;;;0.57;0.57;;;;;;;10.38;79.67;101824.84;5090615;29;20103;-81
2022/11/10 08:49:13;;;;;;;1.45;1.35;;;;;;;10.38;79.32;101830.09;5120836;28;20150;-82
2022/11/10 08:51:44;;;;;;;1.05;1.05;;;;;;;10.46;79.15;101830.00;5124173;28;20035;-81
2022/11/10 08:54:14;;;;;;;0.70;0.70;;;;;;;10.53;79.26;101839.59;5106937;29;20093;-79
2022/11/10 08:56:45;;;;;;;0.30;0.30;;;;;;;10.56;78.90;101836.91;5091623;29;20061;-79
2022/11/10 08:59:15;;;;;;;0.30;0.30;;;;;;;10.60;78.87;101845.63;5118756;28;20071;-82
2022/11/10 09:01:46;;;;;;;0.30;0.30;;;;;;;10.57;78.92;101850.94;5096400;28;20046;-85
2022/11/10 09:04:16;;;;;;;0.30;0.30;;;;;;;10.61;79.07;101847.38;5104783;28;20048;-80
2022/11/10 09:06:47;;;;;;;0.40;0.40;;;;;;;10.75;78.32;101855.13;5110026;28;20035;-79
2022/11/10 09:09:17;;;;;;;0.50;0.50;;;;;;;10.73;79.00;101851.63;5120456;28;20055;-79
2022/11/10 09:11:47;;;;;;;0.40;0.40;;;;;;;10.79;78.23;101859.44;5119851;28;20082;-81
2022/11/10 09:14:18;;;;;;;0.40;0.40;;;;;;;10.77;78.48;101845.50;5085379;29;20043;-80
2022/11/10 09:16:48;;;;;;;0.40;0.40;;;;;;;10.86;78.04;101855.91;5098844;29;20023;-82
2022/11/10 09:19:19;;;;;;;0.30;0.30;;;;;;;10.86;78.04;101858.53;5107403;29;20069;-82
2022/11/10 09:21:49;;;;;;;0.68;0.68;;;;;;;10.89;78.49;101858.47;5128524;28;20015;-83
2022/11/10 09:24:20;;;;;;;1.55;0.98;;;;;;;10.99;77.84;101854.88;5107811;29;20244;-80
2022/11/10 09:26:51;;;;;;;0.30;0.30;;;;;;;10.96;78.16;101862.78;5098814;28;20508;-82
2022/11/10 09:29:23;;;;;;;0.30;0.30;;;;;;;11.02;78.46;101869.72;5118364;28;20130;-80
2022/11/10 09:31:53;;;;;;;0.20;0.20;;;;;;;11.05;78.49;101863.56;5110662;28;20054;-80
2022/11/10 09:34:24;;;;;;;0.63;0.50;;;;;;;11.09;78.63;101868.78;5125430;28;20523;-82
2022/11/10 09:36:57;;;;;;;6.25;1.85;;;;;;;11.16;77.80;101869.59;5097972;29;20035;-82
2022/11/10 09:39:27;;;;;;;1.58;1.48;;;;;;;11.22;77.63;101864.25;5126733;28;20031;-79
2022/11/10 09:41:58;;;;;;;1.42;1.33;;;;;;;11.24;77.50;101867.75;5122384;28;20170;-81
2022/11/10 09:44:48;;;;;;;0.80;0.80;;;;;;;11.24;77.50;101869.50;5105950;28;20426;-79
2022/11/10 09:47:25;;;;;;;1.20;1.20;;;;;;;11.25;77.47;101879.09;5102296;28;20039;-80
2022/11/10 09:50:00;;;;;;;5.63;2.05;;;;;;;11.34;77.66;101887.78;5117994;29;20446;-80
2022/11/10 09:52:33;;;;;;;0.70;0.70;;;;;;;11.38;77.60;101883.34;5083869;28;20058;-81
2022/11/10 09:55:42;;;;;;;0.20;0.20;;;;;;;11.45;77.12;101882.38;5104001;29;20043;-79
2022/11/10 09:58:13;;;;;;;0.38;0.38;;;;;;;11.50;77.53;101893.69;5115636;28;20530;-81
2022/11/10 10:01:08;;;;;;;0.40;0.40;;;;;;;11.52;77.10;101898.97;5120549;28;20042;-79
2022/11/10 10:03:47;;;;;;;1.77;1.63;;;;;;;11.60;76.84;101905.00;5105863;28;20046;-80
2022/11/10 10:06:20;;;;;;;1.05;1.00;;;;;;;11.60;76.77;101899.72;5122339;28;20137;-82
2022/11/10 10:09:10;;;;;;;0.52;0.52;;;;;;;11.60;76.21;101910.25;5131759;28;20030;-84
2022/11/10 10:12:01;;;;;;;0.63;0.60;;;;;;;11.68;76.34;101911.91;5140623;28;20431;-84
2022/11/10 10:15:02;;;;;;;0.30;0.30;;;;;;;11.71;76.03;101903.97;5139313;28;20039;-80
2022/11/10 10:17:36;;;;;;;0.65;0.65;;;;;;;11.70;75.95;101911.00;5120204;28;20053;-81
2022/11/10 10:20:27;;;;;;;0.30;0.30;;;;;;;11.77;74.99;101906.53;5121989;28;20118;-81
2022/11/10 10:23:13;;;;;;;0.22;0.22;;;;;;;11.89;74.49;101908.97;5141795;28;20047;-81
2022/11/10 10:25:45;;;;;;;1.35;0.52;;;;;;;11.85;74.95;101903.78;5127586;28;20022;-81
2022/11/10 10:28:19;;;;;;;1.40;0.57;;;;;;;11.90;74.31;101905.47;5129314;28;20047;-80
2022/11/10 10:30:49;;;;;;;11.90;0.90;;;;;;;11.91;74.51;101915.09;5119912;28;20086;-84
2022/11/10 10:33:21;;;;;;;0.30;0.30;;;;;;;11.91;74.32;101920.38;5102304;28;20059;-82
2022/11/10 10:35:53;;;;;;;1.10;1.10;;;;;;;11.98;73.89;101904.53;5088776;29;20054;-81
2022/11/10 10:38:32;;;;;;;0.57;0.57;;;;;;;12.02;73.81;101909.72;5090844;28;20121;-84
2022/11/10 10:41:21;;;;;;;0.50;0.50;;;;;;;12.08;73.80;101895.63;5143367;28;20031;-83
2022/11/10 10:43:56;;;;;;;0.52;0.52;;;;;;;12.08;73.66;101900.88;5133325;28;20442;-84
2022/11/10 10:46:30;;;;;;;0.43;0.43;;;;;;;12.15;72.36;101902.53;5112137;28;20062;-82
2022/11/10 10:49:19;;;;;;;0.20;0.20;;;;;;;12.18;72.59;101898.97;5105032;28;20038;-83
2022/11/10 10:52:23;;;;;;;0.20;0.20;;;;;;;12.26;72.81;101895.34;5138426;28;20031;-80
2022/11/10 10:55:08;;;;;;;;;;;;;;;12.33;71.73;101901.38;5137224;28;20175;-84
2022/11/10 10:57:50;;;;;;;0.50;0.50;;;;;;;12.35;71.51;101896.09;5115420;28;19940;-80
2022/11/10 11:00:22;;;;;;;0.50;0.50;;;;;;;12.35;71.67;101896.94;5118027;28;20121;-86
2022/11/10 11:03:04;;;;;;;0.50;0.50;;;;;;;12.45;70.95;101910.81;5122022;28;20529;-83
2022/11/10 11:05:35;;;;;;;2.05;1.05;;;;;;;12.53;70.78;101908.09;5120874;28;20186;-84
2022/11/10 11:08:16;;;;;;;0.55;0.55;;;;;;;12.55;69.64;101896.63;5147417;28;20054;-84
2022/11/10 11:10:47;;;;;;;0.52;0.52;;;;;;;12.59;69.68;101900.97;5146171;28;20035;-80
2022/11/10 11:13:26;;;;;;;0.30;0.30;;;;;;;12.71;69.38;101907.78;5138393;28;20521;-80
2022/11/10 11:16:06;;;;;;;0.20;0.20;;;;;;;12.76;69.70;101910.34;5128381;28;20112;-82
2022/11/10 11:18:39;;;;;;;0.63;0.63;;;;;;;12.86;69.14;101918.94;5103347;28;20209;-82
2022/11/10 11:21:25;;;;;;;0.30;0.30;;;;;;;12.99;67.11;101924.88;5118232;28;20084;-82
2022/11/10 11:24:14;;;;;;;0.30;0.30;;;;;;;13.00;68.28;101930.09;5110514;28;20047;-83
2022/11/10 11:26:58;;;;;;;0.52;0.52;;;;;;;13.31;65.95;101933.94;5133134;28;20059;-79
2022/11/10 11:29:36;;;;;;;;;;;;;;;13.25;67.45;101934.91;5125354;28;20255;-82
2022/11/10 11:32:31;;;;;;;0.85;0.75;;;;;;;13.41;66.51;101930.25;5124935;28;19918;-83
2022/11/10 11:35:10;;;;;;;0.30;0.30;;;;;;;13.57;65.00;101943.13;5141395;28;20453;-83
2022/11/10 11:37:53;;;;;;;0.40;0.40;;;;;;;13.67;64.65;101942.06;5114973;28;20051;-82
2022/11/10 11:41:01;;;;;;;0.30;0.30;;;;;;;13.71;65.43;101943.72;5123035;28;20043;-81
2022/11/10 11:44:14;;;;;;;0.63;0.63;;;;;;;13.77;64.72;101948.84;5144954;28;20057;-80
2022/11/10 11:47:13;;;;;;;3.42;2.28;;;;;;;14.06;61.37;101962.31;5116983;28;20035;-79
2022/11/10 11:49:46;;;;;;;0.30;0.30;;;;;;;14.12;61.08;101968.34;5123358;28;20061;-81
2022/11/10 11:52:39;;;;;;;3.00;1.15;;;;;;;14.14;60.80;101958.63;5136801;28;20402;-81
2022/11/10 11:55:57;;;;;;;0.73;0.73;;;;;;;14.25;61.17;101968.09;5142484;28;20756;-81
2022/11/10 11:58:44;;;;;;;0.30;0.30;;;;;;;14.38;59.22;101982.75;5099894;28;20337;-82
2022/11/10 12:01:14;;;;;;;0.30;0.30;;;;;;;14.38;59.63;101966.03;5153073;28;20127;-78
2022/11/10 12:03:46;;;;;;;0.50;0.50;;;;;;;14.34;60.63;101975.78;5130143;28;20134;-81
2022/11/10 12:06:40;;;;;;;0.30;0.30;;;;;;;14.44;59.86;101982.59;5124251;28;20038;-81
2022/11/10 12:09:10;;;;;;;0.73;0.73;;;;;;;14.60;58.96;101977.81;5118038;28;20043;-82